createdAt,value
2022-08-28T00:00:07.448Z,1008.06
2022-08-28T00:05:11.622Z,1008.09
2022-08-28T00:10:15.783Z,1008.06
2022-08-28T00:15:19.913Z,1008.09
2022-08-28T00:20:24.084Z,1008.18
2022-08-28T00:25:28.263Z,1008.19
2022-08-28T00:30:32.389Z,1008.29
2022-08-28T00:35:36.553Z,1008.28
2022-08-28T00:40:40.769Z,1008.27
2022-08-28T00:45:44.892Z,1008.23
2022-08-28T00:50:49.067Z,1008.17
2022-08-28T00:55:53.207Z,1008.27
2022-08-28T01:00:57.374Z,1008.25
2022-08-28T01:06:01.518Z,1008.20
2022-08-28T01:11:05.688Z,1008.28
2022-08-28T01:16:09.934Z,1008.34
2022-08-28T01:21:16.866Z,1008.27
2022-08-28T01:26:16.288Z,1008.32
2022-08-28T01:31:20.462Z,1008.26
2022-08-28T01:36:22.680Z,1008.34
2022-08-28T01:41:26.864Z,1008.36
2022-08-28T01:46:31.097Z,1008.45
2022-08-28T01:51:38.172Z,1008.43
2022-08-28T01:56:39.360Z,1008.53
2022-08-28T02:01:43.588Z,1008.49
2022-08-28T02:06:47.655Z,1008.53
2022-08-28T02:11:51.823Z,1008.51
2022-08-28T02:16:55.980Z,1008.52
2022-08-28T02:22:00.167Z,1008.62
2022-08-28T02:27:04.323Z,1008.71
2022-08-28T02:32:08.433Z,1008.74
2022-08-28T02:37:12.619Z,1008.68
2022-08-28T02:42:16.751Z,1008.74
2022-08-28T02:47:20.926Z,1008.75
2022-08-28T02:52:25.111Z,1008.83
2022-08-28T02:57:29.254Z,1008.84
2022-08-28T03:02:33.542Z,1008.93
2022-08-28T03:07:37.613Z,1008.88
2022-08-28T03:12:41.737Z,1008.92
2022-08-28T03:17:45.902Z,1008.88
2022-08-28T03:22:48.146Z,1008.92
2022-08-28T03:27:52.329Z,1008.87
2022-08-28T03:32:54.586Z,1008.91
2022-08-28T03:37:58.763Z,1008.81
2022-08-28T03:43:02.941Z,1008.90
2022-08-28T03:48:07.068Z,1008.86
2022-08-28T03:53:11.254Z,1008.89
2022-08-28T03:58:18.832Z,1008.95
2022-08-28T04:03:19.607Z,1008.97
2022-08-28T04:08:23.754Z,1008.99
2022-08-28T04:13:27.884Z,1008.94
2022-08-28T04:18:32.055Z,1009.00
2022-08-28T04:23:36.204Z,1008.99
2022-08-28T04:28:40.395Z,1009.06
2022-08-28T04:33:44.512Z,1009.09
2022-08-28T04:38:48.656Z,1009.15
2022-08-28T04:43:52.849Z,1009.14
2022-08-28T04:48:57.007Z,1009.09
2022-08-28T04:54:01.152Z,1009.17
2022-08-28T04:59:05.350Z,1009.15
2022-08-28T05:04:09.476Z,1009.29
2022-08-28T05:09:13.621Z,1009.39
2022-08-28T05:14:17.803Z,1009.37
2022-08-28T05:19:20.083Z,1009.47
2022-08-28T05:24:24.256Z,1009.47
2022-08-28T05:29:28.403Z,1009.58
2022-08-28T05:34:32.565Z,1009.59
2022-08-28T05:39:36.725Z,1009.60
2022-08-28T05:44:40.861Z,1009.55
2022-08-28T05:49:45.034Z,1009.70
2022-08-28T05:54:49.208Z,1009.71
2022-08-28T05:59:53.371Z,1009.76
2022-08-28T06:04:57.548Z,1009.73
2022-08-28T06:10:01.669Z,1009.73
2022-08-28T06:15:05.834Z,1009.78
2022-08-28T06:20:10.007Z,1009.88
2022-08-28T06:25:16.216Z,1009.96
2022-08-28T06:30:18.333Z,1009.87
2022-08-28T06:35:22.501Z,1009.96
2022-08-28T06:40:26.706Z,1009.93
2022-08-28T06:45:30.910Z,1010.05
2022-08-28T06:50:34.950Z,1009.96
2022-08-28T06:55:39.154Z,1010.04
2022-08-28T07:00:43.280Z,1010.10
2022-08-28T07:05:45.559Z,1010.07
2022-08-28T07:10:49.945Z,1010.04
2022-08-28T07:15:52.041Z,1009.99
2022-08-28T07:20:56.152Z,1010.08
2022-08-28T07:26:00.300Z,1010.03
2022-08-28T07:31:04.540Z,1010.10
2022-08-28T07:36:08.652Z,1010.04
2022-08-28T07:41:12.773Z,1010.07
2022-08-28T07:46:17.041Z,1010.13
2022-08-28T10:58:54.990Z,1010.45
2022-08-28T11:03:57.309Z,1010.41
2022-08-28T11:09:01.445Z,1010.37
2022-08-28T11:14:05.593Z,1010.51
2022-08-28T11:19:07.827Z,1010.38
2022-08-28T11:24:26.045Z,1010.48
2022-08-28T11:29:28.311Z,1010.49
2022-08-28T11:34:46.442Z,1010.56
2022-08-28T11:39:48.714Z,1010.47
2022-08-28T11:45:08.912Z,1010.46
2022-08-28T11:50:25.075Z,1010.49
2022-08-28T11:55:43.243Z,1010.42
2022-08-28T12:01:01.443Z,1010.49
2022-08-28T12:06:03.698Z,1010.40
2022-08-28T12:11:14.838Z,1010.37
2022-08-28T12:16:26.134Z,1010.41
2022-08-28T12:21:37.196Z,1010.34
2022-08-28T12:26:48.350Z,1010.36
2022-08-28T12:31:59.536Z,1010.37
2022-08-28T12:37:10.670Z,1010.16
2022-08-28T12:42:12.972Z,1010.20
2022-08-28T12:47:17.134Z,1010.24
2022-08-28T12:52:21.259Z,1010.16
2022-08-28T12:57:25.439Z,1010.16
2022-08-28T13:02:29.678Z,1010.19
2022-08-28T13:07:33.738Z,1010.12
2022-08-28T13:12:54.672Z,1010.20
2022-08-28T13:17:42.064Z,1010.05
2022-08-28T13:22:50.962Z,1010.05
2022-08-28T13:27:50.356Z,1010.03
2022-08-28T13:32:54.560Z,1010.00
2022-08-28T13:37:58.662Z,1009.90
2022-08-28T13:43:02.884Z,1010.03
2022-08-28T13:48:06.991Z,1009.89
2022-08-28T13:53:11.365Z,1009.94
2022-08-28T13:58:15.315Z,1009.86
2022-08-28T14:03:19.475Z,1009.84
2022-08-28T14:08:23.624Z,1009.81
2022-08-28T14:13:27.834Z,1009.78
2022-08-28T14:18:31.977Z,1009.67
2022-08-28T14:23:38.726Z,1009.74
2022-08-28T14:28:38.475Z,1009.67
2022-08-28T14:33:42.562Z,1009.61
2022-08-28T14:38:46.704Z,1009.58
2022-08-28T14:43:50.883Z,1009.58
2022-08-28T14:48:55.027Z,1009.57
2022-08-28T14:53:59.236Z,1009.67
2022-08-28T14:59:03.331Z,1009.63
2022-08-28T15:04:07.603Z,1009.65
2022-08-28T15:09:11.660Z,1009.55
2022-08-28T15:14:15.821Z,1009.59
2022-08-28T15:19:19.988Z,1009.61
2022-08-28T15:24:24.115Z,1009.66
2022-08-28T15:29:28.308Z,1009.62
2022-08-28T15:34:32.441Z,1009.64
2022-08-28T15:39:36.650Z,1009.52
2022-08-28T15:44:40.806Z,1009.49
2022-08-28T15:49:49.726Z,1009.50
2022-08-28T15:54:49.119Z,1009.57
2022-08-28T15:59:53.253Z,1009.44
2022-08-28T16:04:57.423Z,1009.46
2022-08-28T16:10:01.586Z,1009.38
2022-08-28T16:15:03.848Z,1009.30
2022-08-28T16:20:11.049Z,1009.33
2022-08-28T16:25:12.192Z,1009.30
2022-08-28T16:30:16.313Z,1009.25
2022-08-28T16:35:20.470Z,1009.33
2022-08-28T16:40:24.729Z,1009.22
2022-08-28T16:45:28.770Z,1009.18
2022-08-28T16:50:32.958Z,1009.25
2022-08-28T16:55:37.099Z,1009.23
2022-08-28T17:00:52.307Z,1009.36
2022-08-28T17:10:49.630Z,1009.34
2022-08-28T17:15:53.759Z,1009.36
2022-08-28T17:20:57.905Z,1009.36
2022-08-28T17:26:02.062Z,1009.39
2022-08-28T17:31:06.271Z,1009.44
2022-08-28T17:36:21.250Z,1009.43
2022-08-28T17:41:14.525Z,1009.50
2022-08-28T17:46:18.746Z,1009.54
2022-08-28T17:51:23.482Z,1009.64
2022-08-28T17:56:35.644Z,1009.69
2022-08-28T18:01:31.245Z,1009.71
2022-08-28T18:06:33.444Z,1009.62
2022-08-28T18:11:37.606Z,1009.73
2022-08-28T18:16:40.010Z,1009.75
2022-08-28T18:21:44.076Z,1009.79
2022-08-28T18:26:46.285Z,1009.84
2022-08-28T18:31:50.493Z,1009.92
2022-08-28T18:36:52.766Z,1010.01
2022-08-28T18:41:56.891Z,1010.02
2022-08-28T18:46:59.203Z,1010.08
2022-08-28T18:52:03.341Z,1010.07
2022-08-28T18:57:07.465Z,1010.18
2022-08-28T19:02:11.763Z,1010.21
2022-08-28T19:07:15.781Z,1010.22
2022-08-28T19:12:19.994Z,1010.40
2022-08-28T19:17:24.112Z,1010.51
2022-08-28T19:22:28.571Z,1010.58
2022-08-28T19:27:32.461Z,1010.66
2022-08-28T19:32:36.619Z,1010.65
2022-08-28T19:37:42.683Z,1010.69
2022-08-28T19:42:44.888Z,1010.76
2022-08-28T19:52:53.243Z,1010.94
2022-08-28T19:57:57.402Z,1010.93
2022-08-28T20:03:01.621Z,1010.98
2022-08-28T20:08:05.845Z,1011.00
2022-08-28T20:13:09.854Z,1011.01
2022-08-28T20:18:14.191Z,1011.14
2022-08-28T20:23:18.194Z,1011.15
2022-08-28T20:28:22.356Z,1011.24
2022-08-28T20:33:26.529Z,1011.17
2022-08-28T20:43:32.925Z,1011.41
2022-08-28T20:48:35.195Z,1011.41
2022-08-28T20:53:39.356Z,1011.38
2022-08-28T20:58:41.656Z,1011.43
2022-08-28T21:03:45.914Z,1011.38
2022-08-28T21:08:49.972Z,1011.46
2022-08-28T21:13:54.123Z,1011.45
2022-08-28T21:19:15.265Z,1011.59
2022-08-28T21:24:02.473Z,1011.66
2022-08-28T21:29:06.607Z,1011.65
2022-08-28T21:34:10.764Z,1011.67
2022-08-28T21:39:14.904Z,1011.73
2022-08-28T21:44:19.066Z,1011.80
2022-08-28T21:49:23.243Z,1011.75
2022-08-28T21:54:27.397Z,1011.79
2022-08-28T21:59:33.134Z,1011.86
2022-08-28T22:04:35.745Z,1011.84
2022-08-28T22:09:39.900Z,1011.81
2022-08-28T22:14:44.067Z,1011.83
2022-08-28T22:19:48.218Z,1011.77
2022-08-28T22:24:52.355Z,1011.72
2022-08-28T22:29:56.527Z,1011.79
2022-08-28T22:35:00.725Z,1011.76
2022-08-28T22:40:13.270Z,1011.77
2022-08-28T22:45:07.127Z,1011.69
2022-08-28T22:50:11.273Z,1011.71
2022-08-28T22:55:13.551Z,1011.70
2022-08-28T23:00:17.851Z,1011.56
2022-08-28T23:05:21.862Z,1011.50
2022-08-28T23:10:48.368Z,1011.54
2022-08-28T23:15:30.171Z,1011.51
2022-08-28T23:20:34.362Z,1011.53
2022-08-28T23:25:38.503Z,1011.49
2022-08-28T23:30:48.180Z,1011.45
2022-08-28T23:35:46.817Z,1011.52
2022-08-28T23:40:50.999Z,1011.51
2022-08-28T23:45:55.189Z,1011.41
2022-08-28T23:50:59.292Z,1011.46
2022-08-28T23:56:03.456Z,1011.47
